Time;durP1;ratioP1;P1;durP2;ratioP2;P2;SDS_P1;SDS_P2;PMS_P1;PMS_P2;Temp;Humidity;BMP_temperature;BMP_pressure;BME280_temperature;BME280_humidity;BME280_pressure;Samples;Min_cycle;Max_cycle;Signal;HPM_P1;HPM_P2
2024/01/29 00:00:05;;;;;;;0.10;0.10;;;;;;;;;;5033574;28;20479;-61
2024/01/29 00:02:35;;;;;;;0.85;0.85;;;;;;;;;;5033635;28;20054;-61
2024/01/29 00:05:02;;;;;;;0.00;0.00;;;;;;;;;;5033228;28;20049;-61
2024/01/29 00:07:30;;;;;;;0.52;0.52;;;;;;;;;;5033489;28;20042;-61
2024/01/29 00:09:57;;;;;;;0.85;0.85;;;;;;;;;;5033400;28;20088;-61
2024/01/29 00:12:25;;;;;;;0.47;0.47;;;;;;;;;;5033396;28;20045;-61
2024/01/29 00:14:53;;;;;;;0.32;0.32;;;;;;;;;;5048656;28;20455;-61
2024/01/29 00:17:20;;;;;;;3.03;1.48;;;;;;;;;;5032229;28;20048;-61
2024/01/29 00:19:48;;;;;;;1.02;1.02;;;;;;;;;;5033231;28;20042;-61
2024/01/29 00:22:15;;;;;;;0.65;0.65;;;;;;;;;;5033282;28;20053;-61
2024/01/29 00:24:44;;;;;;;0.30;0.30;;;;;;;;;;5033149;28;20552;-61
2024/01/29 00:27:11;;;;;;;0.30;0.30;;;;;;;;;;5032796;28;20490;-61
2024/01/29 00:29:39;;;;;;;0.28;0.28;;;;;;;;;;5033156;28;20051;-61
2024/01/29 00:32:07;;;;;;;0.20;0.20;;;;;;;;;;5033031;28;20051;-61
2024/01/29 00:34:35;;;;;;;0.85;0.85;;;;;;;;;;5032999;28;20491;-61
2024/01/29 00:37:03;;;;;;;0.55;0.55;;;;;;;;;;5032952;28;20494;-62
2024/01/29 00:39:31;;;;;;;0.20;0.20;;;;;;;;;;5032879;28;20108;-61
2024/01/29 00:41:58;;;;;;;3.40;1.45;;;;;;;;;;5032905;28;20549;-61
2024/01/29 00:44:26;;;;;;;0.57;0.52;;;;;;;;;;5032962;28;20043;-61
2024/01/29 00:46:54;;;;;;;0.65;0.65;;;;;;;;;;5032698;28;20041;-61
2024/01/29 00:49:22;;;;;;;0.35;0.35;;;;;;;;;;5032696;28;20033;-61
2024/01/29 00:51:49;;;;;;;0.25;0.25;;;;;;;;;;5032727;28;20041;-61
2024/01/29 00:54:19;;;;;;;0.10;0.10;;;;;;;;;;5031488;28;20488;-61
2024/01/29 00:56:46;;;;;;;0.95;0.95;;;;;;;;;;5047954;28;20099;-61
2024/01/29 00:59:14;;;;;;;1.88;1.30;;;;;;;;;;5032707;28;20041;-61
2024/01/29 01:01:41;;;;;;;0.65;0.65;;;;;;;;;;5032745;28;20038;-61
2024/01/29 01:04:09;;;;;;;1.25;1.00;;;;;;;;;;5032629;28;20029;-61
2024/01/29 01:06:37;;;;;;;6.57;2.33;;;;;;;;;;5033001;28;20070;-61
2024/01/29 01:09:04;;;;;;;0.08;0.08;;;;;;;;;;5032646;28;20073;-61
2024/01/29 01:11:32;;;;;;;0.10;0.10;;;;;;;;;;5032520;28;20051;-61
2024/01/29 01:13:59;;;;;;;0.70;0.70;;;;;;;;;;5032602;28;20095;-61
2024/01/29 01:16:27;;;;;;;0.08;0.08;;;;;;;;;;5032455;28;20042;-61
2024/01/29 01:18:54;;;;;;;1.00;0.82;;;;;;;;;;5032352;28;20065;-61
2024/01/29 01:21:22;;;;;;;0.52;0.52;;;;;;;;;;5032145;28;20111;-61
2024/01/29 01:23:50;;;;;;;2.42;1.10;;;;;;;;;;5032229;28;20046;-61
2024/01/29 01:26:18;;;;;;;0.00;0.00;;;;;;;;;;5032222;28;20491;-61
2024/01/29 01:28:45;;;;;;;0.77;0.75;;;;;;;;;;5032386;28;20049;-61
2024/01/29 01:31:13;;;;;;;0.00;0.00;;;;;;;;;;5032190;28;20067;-61
2024/01/29 01:33:40;;;;;;;0.20;0.20;;;;;;;;;;5032582;28;20478;-61
2024/01/29 01:36:08;;;;;;;0.20;0.20;;;;;;;;;;5047591;28;20072;-61
2024/01/29 01:38:35;;;;;;;0.10;0.10;;;;;;;;;;5033071;28;20049;-61
2024/01/29 01:41:03;;;;;;;0.55;0.55;;;;;;;;;;5036257;28;20076;-61
2024/01/29 01:43:31;;;;;;;0.35;0.35;;;;;;;;;;5036395;28;20494;-61
2024/01/29 01:46:04;;;;;;;0.25;0.25;;;;;;;;;;5035977;28;20037;-61
2024/01/29 01:48:33;;;;;;;0.22;0.22;;;;;;;;;;5036157;28;20038;-61
2024/01/29 01:51:01;;;;;;;7.57;1.85;;;;;;;;;;5051439;28;20133;-61
2024/01/29 01:53:30;;;;;;;2.92;1.08;;;;;;;;;;5035925;28;20479;-61
2024/01/29 01:56:01;;;;;;;1.70;1.63;;;;;;;;;;5036055;28;20097;-61
2024/01/29 01:58:28;;;;;;;1.50;1.40;;;;;;;;;;5036148;28;20091;-61
2024/01/29 02:00:59;;;;;;;1.75;1.30;;;;;;;;;;5035856;28;20048;-61
2024/01/29 02:03:27;;;;;;;1.75;1.65;;;;;;;;;;5035763;28;20038;-61
2024/01/29 02:05:55;;;;;;;0.30;0.30;;;;;;;;;;5051406;28;20109;-61
2024/01/29 02:08:23;;;;;;;0.20;0.20;;;;;;;;;;5035941;28;20045;-61
2024/01/29 02:10:54;;;;;;;0.00;0.00;;;;;;;;;;5034707;28;20045;-61
2024/01/29 02:13:21;;;;;;;0.10;0.10;;;;;;;;;;5035601;28;20112;-61
2024/01/29 02:15:49;;;;;;;0.10;0.10;;;;;;;;;;5036262;28;20045;-61
2024/01/29 02:18:17;;;;;;;0.03;0.03;;;;;;;;;;5035649;28;20045;-61
2024/01/29 02:20:44;;;;;;;0.00;0.00;;;;;;;;;;5035512;28;20069;-61
2024/01/29 02:23:12;;;;;;;0.10;0.10;;;;;;;;;;5035426;28;20069;-61
2024/01/29 02:25:39;;;;;;;0.30;0.30;;;;;;;;;;5035292;28;20042;-61
2024/01/29 02:28:07;;;;;;;1.30;1.20;;;;;;;;;;5035197;28;20052;-60
2024/01/29 02:30:34;;;;;;;0.10;0.10;;;;;;;;;;5035494;28;20045;-61
2024/01/29 02:33:02;;;;;;;0.40;0.40;;;;;;;;;;5035202;28;20049;-61
2024/01/29 02:35:30;;;;;;;0.47;0.45;;;;;;;;;;5035240;28;20051;-61
2024/01/29 02:37:57;;;;;;;4.28;1.70;;;;;;;;;;5035170;28;20037;-61
2024/01/29 02:40:25;;;;;;;2.70;2.50;;;;;;;;;;5035215;28;20053;-61
2024/01/29 02:42:52;;;;;;;1.45;0.70;;;;;;;;;;5035145;28;20073;-61
2024/01/29 02:45:20;;;;;;;0.65;0.52;;;;;;;;;;5035045;28;20132;-61
2024/01/29 02:47:48;;;;;;;0.75;0.60;;;;;;;;;;5050173;28;20092;-61
2024/01/29 02:50:16;;;;;;;0.93;0.93;;;;;;;;;;5034592;28;20049;-61
2024/01/29 02:52:43;;;;;;;2.42;1.67;;;;;;;;;;5034972;28;20045;-61
2024/01/29 02:55:11;;;;;;;1.83;1.73;;;;;;;;;;5033711;28;20038;-61
2024/01/29 02:57:39;;;;;;;1.63;1.52;;;;;;;;;;5034683;28;20065;-61
2024/01/29 03:00:07;;;;;;;2.47;2.28;;;;;;;;;;5034862;28;20471;-61
2024/01/29 03:02:34;;;;;;;2.33;2.13;;;;;;;;;;5035061;28;20539;-61
2024/01/29 03:05:02;;;;;;;1.40;1.35;;;;;;;;;;5034598;28;20132;-61
2024/01/29 03:07:30;;;;;;;1.10;1.10;;;;;;;;;;5034703;28;20467;-61
2024/01/29 03:09:57;;;;;;;4.57;2.17;;;;;;;;;;5033992;28;20080;-61
2024/01/29 03:12:25;;;;;;;0.80;0.80;;;;;;;;;;5034618;28;20081;-61
2024/01/29 03:14:52;;;;;;;2.35;2.25;;;;;;;;;;5034264;28;20120;-61
2024/01/29 03:17:20;;;;;;;1.00;0.80;;;;;;;;;;5034614;28;20042;-61
2024/01/29 03:19:48;;;;;;;2.28;2.08;;;;;;;;;;5034156;28;20510;-61
2024/01/29 03:22:15;;;;;;;2.05;0.75;;;;;;;;;;5034299;28;20107;-61
2024/01/29 03:24:43;;;;;;;0.35;0.35;;;;;;;;;;5034457;28;20121;-61
2024/01/29 03:27:11;;;;;;;4.18;2.42;;;;;;;;;;5033899;28;20128;-61
2024/01/29 03:29:38;;;;;;;2.20;2.00;;;;;;;;;;5034368;28;20439;-61
2024/01/29 03:32:06;;;;;;;0.75;0.75;;;;;;;;;;5034343;28;20045;-61
2024/01/29 03:34:34;;;;;;;2.72;1.85;;;;;;;;;;5034216;28;20069;-61
2024/01/29 03:37:02;;;;;;;0.80;0.80;;;;;;;;;;5034186;28;20053;-61
2024/01/29 03:39:29;;;;;;;3.25;2.95;;;;;;;;;;5032666;28;20391;-61
2024/01/29 03:41:57;;;;;;;0.55;0.55;;;;;;;;;;5034020;28;20046;-61
2024/01/29 03:44:24;;;;;;;4.55;0.75;;;;;;;;;;5034189;28;20047;-61
2024/01/29 03:46:52;;;;;;;0.47;0.47;;;;;;;;;;5033998;28;20437;-61
2024/01/29 03:49:20;;;;;;;2.20;1.60;;;;;;;;;;5033939;28;20041;-61
2024/01/29 03:51:47;;;;;;;1.13;1.13;;;;;;;;;;5033833;28;20052;-61
2024/01/29 03:54:15;;;;;;;2.28;2.08;;;;;;;;;;5032593;28;20045;-61
2024/01/29 03:56:43;;;;;;;1.63;1.52;;;;;;;;;;5033776;28;20066;-61
2024/01/29 03:59:11;;;;;;;0.75;0.55;;;;;;;;;;5033671;28;20125;-61
2024/01/29 04:01:39;;;;;;;3.80;3.60;;;;;;;;;;5033401;28;20046;-61
2024/01/29 04:04:10;;;;;;;2.80;2.50;;;;;;;;;;5033851;28;20038;-61
2024/01/29 04:06:39;;;;;;;6.78;1.15;;;;;;;;;;5033467;28;20037;-61
2024/01/29 04:09:12;;;;;;;2.25;1.60;;;;;;;;;;5033420;28;20402;-61
2024/01/29 04:11:40;;;;;;;1.65;0.93;;;;;;;;;;5033585;28;20038;-61
2024/01/29 04:14:08;;;;;;;0.80;0.80;;;;;;;;;;5033303;28;20044;-61
2024/01/29 04:16:35;;;;;;;1.88;1.58;;;;;;;;;;5033266;28;20056;-61
2024/01/29 04:19:03;;;;;;;1.67;0.70;;;;;;;;;;5033268;28;20041;-61
2024/01/29 04:21:31;;;;;;;1.90;1.80;;;;;;;;;;5031803;28;20050;-61
2024/01/29 04:23:58;;;;;;;0.35;0.13;;;;;;;;;;5033309;28;20380;-61
2024/01/29 04:26:26;;;;;;;1.08;1.08;;;;;;;;;;5033070;28;20034;-61
2024/01/29 04:28:54;;;;;;;0.80;0.80;;;;;;;;;;5033103;28;20045;-61
2024/01/29 04:31:22;;;;;;;1.38;1.17;;;;;;;;;;5033151;28;20068;-61
2024/01/29 04:33:49;;;;;;;0.90;0.90;;;;;;;;;;5031682;28;20041;-61
2024/01/29 04:36:17;;;;;;;1.25;1.17;;;;;;;;;;5033075;28;20084;-61
2024/01/29 04:38:45;;;;;;;1.15;1.15;;;;;;;;;;5032905;28;20438;-61
2024/01/29 04:41:21;;;;;;;3.03;1.55;;;;;;;;;;5032875;28;20167;-61
2024/01/29 04:43:49;;;;;;;1.27;1.20;;;;;;;;;;5032549;28;20547;-61
2024/01/29 04:46:16;;;;;;;2.58;2.15;;;;;;;;;;5032488;28;20033;-61
2024/01/29 04:48:44;;;;;;;8.77;2.10;;;;;;;;;;5032813;28;20037;-61
2024/01/29 04:51:12;;;;;;;1.52;0.95;;;;;;;;;;5032689;28;20487;-61
2024/01/29 04:53:40;;;;;;;1.23;1.13;;;;;;;;;;5031336;28;20052;-61
2024/01/29 04:56:08;;;;;;;3.85;1.98;;;;;;;;;;5032777;28;20462;-61
2024/01/29 04:58:35;;;;;;;0.85;0.85;;;;;;;;;;5032591;28;20100;-60
2024/01/29 05:01:03;;;;;;;0.88;0.75;;;;;;;;;;5031544;28;20253;-60
2024/01/29 05:03:31;;;;;;;2.15;2.05;;;;;;;;;;5032401;28;20080;-61
2024/01/29 05:05:59;;;;;;;0.50;0.50;;;;;;;;;;5032568;28;20479;-61
2024/01/29 05:08:26;;;;;;;2.28;1.95;;;;;;;;;;5032260;28;20045;-60
2024/01/29 05:10:54;;;;;;;1.08;1.08;;;;;;;;;;5032622;28;20121;-60
2024/01/29 05:13:22;;;;;;;2.28;1.85;;;;;;;;;;5032247;28;20041;-61
2024/01/29 05:15:49;;;;;;;1.90;1.52;;;;;;;;;;5031476;28;20049;-60
2024/01/29 05:18:17;;;;;;;4.93;3.20;;;;;;;;;;5032523;28;20052;-60
2024/01/29 05:20:45;;;;;;;3.67;2.47;;;;;;;;;;5032620;28;20077;-60
2024/01/29 05:23:12;;;;;;;5.32;3.55;;;;;;;;;;5032071;28;20103;-60
2024/01/29 05:25:40;;;;;;;4.25;3.53;;;;;;;;;;5032571;28;20121;-60
2024/01/29 05:28:07;;;;;;;6.55;4.15;;;;;;;;;;5032200;28;20045;-60
2024/01/29 05:30:35;;;;;;;4.18;2.63;;;;;;;;;;5031019;28;20080;-60
2024/01/29 05:33:03;;;;;;;6.93;5.55;;;;;;;;;;5032528;28;20795;-60
2024/01/29 05:35:50;;;;;;;6.75;4.22;;;;;;;;;;5032488;28;20042;-60
2024/01/29 05:38:18;;;;;;;8.25;7.55;;;;;;;;;;5030978;28;20073;-61
2024/01/29 05:40:45;;;;;;;2.55;2.45;;;;;;;;;;5032546;28;20451;-61
2024/01/29 05:43:13;;;;;;;1.83;1.70;;;;;;;;;;5032368;28;20041;-60
2024/01/29 05:45:41;;;;;;;14.10;6.53;;;;;;;;;;5032158;28;20045;-60
2024/01/29 05:48:09;;;;;;;3.38;3.03;;;;;;;;;;5032094;28;20124;-61
2024/01/29 05:50:37;;;;;;;4.50;3.33;;;;;;;;;;5030955;28;20101;-60
2024/01/29 05:53:04;;;;;;;3.08;2.85;;;;;;;;;;5030956;28;20041;-61
2024/01/29 05:55:32;;;;;;;5.72;3.95;;;;;;;;;;5031952;28;20038;-61
2024/01/29 05:57:59;;;;;;;5.70;5.13;;;;;;;;;;5032217;28;20045;-61
2024/01/29 06:00:27;;;;;;;8.13;3.88;;;;;;;;;;5032117;28;20040;-61
2024/01/29 06:02:55;;;;;;;4.03;3.70;;;;;;;;;;5030985;28;20106;-60
2024/01/29 06:05:23;;;;;;;6.43;4.65;;;;;;;;;;5031630;28;20041;-60
2024/01/29 06:07:52;;;;;;;2.40;2.17;;;;;;;;;;5031974;28;20041;-59
2024/01/29 06:10:19;;;;;;;4.07;3.78;;;;;;;;;;5032313;28;20049;-60
2024/01/29 06:12:48;;;;;;;3.70;3.50;;;;;;;;;;5031999;28;20511;-60
2024/01/29 06:15:16;;;;;;;3.00;2.53;;;;;;;;;;5031714;28;20045;-60
2024/01/29 06:17:43;;;;;;;12.00;6.10;;;;;;;;;;5032205;28;20041;-60
2024/01/29 06:20:14;;;;;;;4.97;3.75;;;;;;;;;;5031913;28;20088;-60
2024/01/29 06:22:46;;;;;;;2.30;2.13;;;;;;;;;;5031878;28;20045;-60
2024/01/29 06:25:17;;;;;;;1.55;1.48;;;;;;;;;;5033727;28;20290;-61
2024/01/29 06:27:44;;;;;;;1.40;1.35;;;;;;;;;;5035401;28;20073;-61
2024/01/29 06:30:12;;;;;;;1.80;1.70;;;;;;;;;;5035317;28;20033;-61
2024/01/29 06:32:41;;;;;;;22.65;6.82;;;;;;;;;;5034648;28;20487;-61
2024/01/29 06:35:08;;;;;;;4.13;3.80;;;;;;;;;;5035282;28;20495;-61
2024/01/29 06:37:36;;;;;;;5.03;3.95;;;;;;;;;;5035520;28;20042;-62
2024/01/29 06:40:04;;;;;;;12.02;10.90;;;;;;;;;;5035593;28;20375;-61
2024/01/29 06:42:32;;;;;;;15.65;10.55;;;;;;;;;;5035497;28;20037;-61
2024/01/29 06:45:00;;;;;;;17.13;12.07;;;;;;;;;;5035386;28;20432;-61
2024/01/29 06:47:27;;;;;;;13.23;5.68;;;;;;;;;;5035050;28;20038;-61
2024/01/29 06:49:58;;;;;;;16.65;15.20;;;;;;;;;;5035058;28;20129;-61
2024/01/29 06:52:27;;;;;;;14.13;10.10;;;;;;;;;;5034955;28;20049;-61
2024/01/29 06:54:55;;;;;;;13.15;10.93;;;;;;;;;;5035307;28;20122;-61
2024/01/29 06:57:24;;;;;;;10.75;7.40;;;;;;;;;;5035234;28;20443;-61
2024/01/29 06:59:51;;;;;;;15.05;9.93;;;;;;;;;;5033916;28;20034;-61
2024/01/29 07:02:19;;;;;;;23.48;10.30;;;;;;;;;;5034858;28;20052;-60
2024/01/29 07:04:47;;;;;;;4.05;3.78;;;;;;;;;;5035092;28;20061;-59
2024/01/29 07:07:15;;;;;;;5.57;5.15;;;;;;;;;;5034699;28;20049;-61
2024/01/29 07:09:43;;;;;;;6.60;5.93;;;;;;;;;;5034758;28;20069;-60
2024/01/29 07:12:14;;;;;;;14.18;12.20;;;;;;;;;;5034642;28;20490;-60
2024/01/29 07:14:42;;;;;;;11.13;8.52;;;;;;;;;;5034607;28;20116;-60
2024/01/29 07:17:10;;;;;;;12.55;7.93;;;;;;;;;;5034574;28;20037;-60
2024/01/29 07:19:37;;;;;;;13.95;6.30;;;;;;;;;;5034921;28;20120;-60
2024/01/29 07:22:08;;;;;;;22.17;10.65;;;;;;;;;;5034221;28;20132;-59
2024/01/29 07:24:36;;;;;;;10.50;9.55;;;;;;;;;;5034678;28;20057;-60
2024/01/29 07:27:04;;;;;;;14.88;9.32;;;;;;;;;;5034179;28;20048;-60
2024/01/29 07:29:31;;;;;;;5.28;4.80;;;;;;;;;;5034340;28;20067;-60
2024/01/29 07:31:59;;;;;;;17.67;15.00;;;;;;;;;;5034335;28;20041;-61
2024/01/29 07:34:27;;;;;;;27.80;17.63;;;;;;;;;;5034426;28;20124;-60
2024/01/29 07:36:55;;;;;;;11.23;9.23;;;;;;;;;;5033136;28;20041;-60
2024/01/29 07:39:23;;;;;;;12.15;9.48;;;;;;;;;;5034180;28;20124;-60
2024/01/29 07:41:50;;;;;;;9.45;8.73;;;;;;;;;;5033924;28;20124;-60
2024/01/29 07:44:18;;;;;;;6.70;5.85;;;;;;;;;;5034135;28;20041;-60
2024/01/29 07:46:45;;;;;;;20.85;9.02;;;;;;;;;;5033915;28;20491;-60
2024/01/29 07:49:13;;;;;;;9.30;6.72;;;;;;;;;;5034243;28;20037;-60
2024/01/29 07:51:41;;;;;;;4.68;4.28;;;;;;;;;;5034027;28;20080;-60
2024/01/29 07:54:09;;;;;;;9.80;8.93;;;;;;;;;;5033934;28;20033;-60
2024/01/29 07:56:39;;;;;;;4.95;3.75;;;;;;;;;;5032578;28;20045;-60
2024/01/29 07:59:07;;;;;;;12.55;5.55;;;;;;;;;;5033679;28;20042;-60
2024/01/29 08:01:35;;;;;;;8.88;5.95;;;;;;;;;;5034049;28;20132;-60
2024/01/29 08:04:03;;;;;;;10.82;9.73;;;;;;;;;;5033517;28;20041;-60
2024/01/29 08:06:31;;;;;;;8.80;7.93;;;;;;;;;;5033677;28;20081;-60
2024/01/29 08:08:59;;;;;;;15.60;9.20;;;;;;;;;;5033339;28;20069;-60
2024/01/29 08:11:26;;;;;;;13.38;8.32;;;;;;;;;;5033463;28;20558;-60
2024/01/29 08:13:54;;;;;;;15.90;9.57;;;;;;;;;;5033468;28;20109;-60
2024/01/29 08:16:21;;;;;;;4.38;4.07;;;;;;;;;;5033509;28;20851;-60
2024/01/29 08:18:49;;;;;;;13.32;10.57;;;;;;;;;;5033392;28;20095;-61
2024/01/29 08:21:17;;;;;;;14.45;11.93;;;;;;;;;;5033554;28;20033;-60
2024/01/29 08:23:45;;;;;;;7.95;7.32;;;;;;;;;;5033287;28;20562;-61
2024/01/29 08:26:13;;;;;;;14.80;13.35;;;;;;;;;;5033363;28;20080;-61
2024/01/29 08:28:40;;;;;;;12.15;11.02;;;;;;;;;;5032009;28;20407;-61
2024/01/29 08:31:09;;;;;;;11.80;9.85;;;;;;;;;;5033461;28;20034;-61
2024/01/29 08:33:37;;;;;;;16.33;9.50;;;;;;;;;;5033389;28;20466;-61
2024/01/29 08:36:05;;;;;;;15.07;6.80;;;;;;;;;;5032989;28;20044;-61
2024/01/29 08:38:32;;;;;;;5.35;4.95;;;;;;;;;;5033398;28;20045;-61
2024/01/29 08:41:00;;;;;;;15.88;4.43;;;;;;;;;;5032895;28;20083;-61
2024/01/29 08:43:27;;;;;;;5.13;4.72;;;;;;;;;;5033068;28;20053;-61
2024/01/29 08:45:55;;;;;;;2.63;2.47;;;;;;;;;;5032906;28;20033;-61
2024/01/29 08:48:23;;;;;;;8.43;7.18;;;;;;;;;;5032655;28;20124;-61
2024/01/29 08:50:50;;;;;;;4.63;3.85;;;;;;;;;;5033157;28;20444;-61
2024/01/29 08:53:18;;;;;;;0.20;0.20;;;;;;;;;;5032736;28;20046;-61
2024/01/29 08:55:45;;;;;;;0.55;0.55;;;;;;;;;;5033011;28;20037;-61
2024/01/29 08:58:13;;;;;;;4.43;1.83;;;;;;;;;;5031709;28;20452;-61
2024/01/29 09:00:41;;;;;;;0.73;0.52;;;;;;;;;;5032804;28;20099;-61
2024/01/29 09:03:09;;;;;;;1.25;0.82;;;;;;;;;;5032884;28;20038;-61
2024/01/29 09:05:38;;;;;;;1.13;0.35;;;;;;;;;;5032603;28;20038;-61
2024/01/29 09:08:06;;;;;;;1.08;1.08;;;;;;;;;;5031499;28;20475;-61
2024/01/29 09:10:45;;;;;;;1.45;1.35;;;;;;;;;;5032750;28;20060;-61
2024/01/29 09:13:15;;;;;;;3.72;2.72;;;;;;;;;;5033129;28;20041;-61
2024/01/29 09:15:43;;;;;;;1.48;1.35;;;;;;;;;;5032708;28;20506;-61
2024/01/29 09:18:11;;;;;;;2.78;2.00;;;;;;;;;;5032605;28;20049;-60
2024/01/29 09:20:38;;;;;;;1.17;1.02;;;;;;;;;;5032600;28;20042;-60
2024/01/29 09:23:07;;;;;;;1.08;0.75;;;;;;;;;;5032265;28;20053;-60
2024/01/29 09:25:35;;;;;;;3.00;2.10;;;;;;;;;;5032484;28;20045;-60
2024/01/29 09:28:03;;;;;;;0.13;0.13;;;;;;;;;;5032692;28;20091;-60
2024/01/29 09:30:30;;;;;;;3.65;1.63;;;;;;;;;;5032463;28;20048;-61
2024/01/29 09:32:59;;;;;;;3.13;2.22;;;;;;;;;;5032669;28;20041;-60
2024/01/29 09:35:42;;;;;;;6.32;1.85;;;;;;;;;;5032492;28;20037;-60
2024/01/29 09:38:09;;;;;;;6.22;2.60;;;;;;;;;;5032416;28;20116;-60
2024/01/29 09:40:37;;;;;;;0.70;0.70;;;;;;;;;;5032432;28;20049;-61
2024/01/29 09:43:06;;;;;;;0.95;0.63;;;;;;;;;;5032429;28;20073;-61
2024/01/29 09:45:36;;;;;;;2.53;1.10;;;;;;;;;;5032392;28;20269;-60
2024/01/29 09:48:05;;;;;;;1.58;0.73;;;;;;;;;;5032167;28;20045;-60
2024/01/29 09:50:32;;;;;;;1.35;0.50;;;;;;;;;;5032256;28;20434;-60
2024/01/29 09:53:00;;;;;;;1.50;1.27;;;;;;;;;;5032290;28;20048;-60
2024/01/29 09:55:29;;;;;;;0.43;0.43;;;;;;;;;;5032271;28;20038;-60
2024/01/29 09:57:57;;;;;;;2.83;1.83;;;;;;;;;;5032165;28;20103;-60
2024/01/29 10:00:24;;;;;;;0.20;0.20;;;;;;;;;;5033040;28;20402;-60
2024/01/29 10:02:54;;;;;;;10.63;5.95;;;;;;;;;;5036051;28;20487;-60
2024/01/29 10:05:22;;;;;;;9.48;6.20;;;;;;;;;;5035990;28;20048;-60
2024/01/29 10:07:50;;;;;;;8.48;4.45;;;;;;;;;;5035787;28;20049;-60
2024/01/29 10:10:19;;;;;;;6.25;3.20;;;;;;;;;;5035949;28;20047;-60
2024/01/29 10:12:47;;;;;;;10.48;4.63;;;;;;;;;;5035770;28;20037;-60
2024/01/29 10:15:14;;;;;;;4.15;1.75;;;;;;;;;;5035981;28;20046;-60
2024/01/29 10:17:42;;;;;;;2.85;2.20;;;;;;;;;;5035767;28;20033;-60
2024/01/29 10:20:28;;;;;;;2.58;2.17;;;;;;;;;;5035652;28;20492;-60
2024/01/29 10:22:59;;;;;;;2.10;1.48;;;;;;;;;;5035540;28;20058;-60
2024/01/29 10:25:29;;;;;;;9.55;4.82;;;;;;;;;;5035674;28;20061;-60
2024/01/29 10:28:05;;;;;;;5.03;2.78;;;;;;;;;;5035396;28;20100;-60
2024/01/29 10:30:33;;;;;;;2.53;1.35;;;;;;;;;;5035493;28;20103;-61
2024/01/29 10:33:01;;;;;;;8.93;3.88;;;;;;;;;;5035432;28;20095;-60
2024/01/29 10:35:29;;;;;;;10.55;4.07;;;;;;;;;;5035452;28;20037;-60
2024/01/29 10:38:01;;;;;;;4.70;2.83;;;;;;;;;;5035435;28;20387;-60
2024/01/29 10:40:30;;;;;;;5.43;2.45;;;;;;;;;;5035246;28;20511;-60
2024/01/29 10:42:59;;;;;;;10.13;5.25;;;;;;;;;;5034938;28;20045;-60
2024/01/29 10:45:27;;;;;;;2.13;1.73;;;;;;;;;;5035227;28;20120;-60
2024/01/29 10:48:01;;;;;;;3.10;2.05;;;;;;;;;;5035387;28;20048;-60
2024/01/29 10:50:29;;;;;;;1.50;1.40;;;;;;;;;;5035146;28;20049;-60
2024/01/29 10:52:57;;;;;;;0.43;0.43;;;;;;;;;;5035446;28;20045;-60
2024/01/29 10:55:30;;;;;;;1.60;1.50;;;;;;;;;;5034974;28;20108;-60
2024/01/29 10:58:01;;;;;;;6.07;3.45;;;;;;;;;;5033971;28;20034;-62
2024/01/29 11:00:28;;;;;;;3.08;1.67;;;;;;;;;;5035267;28;20124;-61
2024/01/29 11:02:58;;;;;;;1.25;0.73;;;;;;;;;;5034881;28;20045;-61
2024/01/29 11:05:27;;;;;;;6.82;3.05;;;;;;;;;;5034809;28;20056;-61
2024/01/29 11:07:57;;;;;;;0.47;0.47;;;;;;;;;;5034740;28;20038;-61
2024/01/29 11:10:25;;;;;;;4.75;2.17;;;;;;;;;;5034451;28;20243;-60
2024/01/29 11:12:54;;;;;;;2.90;2.25;;;;;;;;;;5033363;28;20037;-60
2024/01/29 11:15:22;;;;;;;5.28;2.85;;;;;;;;;;5033663;28;20399;-61
2024/01/29 11:17:49;;;;;;;4.20;2.42;;;;;;;;;;5033667;28;20041;-61
2024/01/29 11:20:20;;;;;;;5.97;3.83;;;;;;;;;;5034516;28;20038;-62
2024/01/29 11:23:06;;;;;;;2.42;1.55;;;;;;;;;;5034345;28;20053;-61
2024/01/29 11:25:38;;;;;;;28.83;5.82;;;;;;;;;;5034703;28;20041;-61
2024/01/29 11:28:08;;;;;;;1.85;1.52;;;;;;;;;;5034310;28;20129;-62
2024/01/29 11:30:36;;;;;;;1.73;0.95;;;;;;;;;;5034440;28;20065;-60
2024/01/29 11:33:14;;;;;;;0.17;0.17;;;;;;;;;;5034327;28;20033;-62
2024/01/29 11:35:43;;;;;;;6.93;3.65;;;;;;;;;;5034296;28;20034;-61
2024/01/29 11:38:14;;;;;;;6.25;3.15;;;;;;;;;;5034189;28;20046;-61
2024/01/29 11:40:42;;;;;;;5.00;3.05;;;;;;;;;;5032982;28;20037;-61
2024/01/29 11:43:16;;;;;;;1.48;1.02;;;;;;;;;;5034254;28;20491;-61
2024/01/29 11:45:45;;;;;;;0.10;0.10;;;;;;;;;;5034130;28;20095;-61
2024/01/29 11:48:13;;;;;;;3.70;0.57;;;;;;;;;;5033960;28;20045;-61
2024/01/29 11:50:43;;;;;;;0.60;0.60;;;;;;;;;;5034387;28;20045;-61
2024/01/29 11:53:12;;;;;;;3.63;0.73;;;;;;;;;;5034268;28;20459;-61
2024/01/29 11:55:40;;;;;;;0.00;0.00;;;;;;;;;;5033879;28;20041;-61
2024/01/29 11:58:11;;;;;;;0.10;0.10;;;;;;;;;;5033871;28;20717;-61
2024/01/29 12:00:39;;;;;;;1.25;0.75;;;;;;;;;;5032682;28;20431;-60
2024/01/29 12:03:08;;;;;;;0.00;0.00;;;;;;;;;;5033740;28;20088;-60
2024/01/29 12:05:35;;;;;;;5.15;1.15;;;;;;;;;;5033712;28;20033;-60
2024/01/29 12:08:03;;;;;;;2.53;1.30;;;;;;;;;;5033640;28;20124;-61
2024/01/29 12:10:30;;;;;;;3.63;1.15;;;;;;;;;;5032359;28;20491;-60
2024/01/29 12:12:58;;;;;;;3.95;1.67;;;;;;;;;;5033645;28;20045;-61
2024/01/29 12:15:26;;;;;;;0.45;0.45;;;;;;;;;;5033973;28;20119;-61
2024/01/29 12:17:53;;;;;;;2.65;1.92;;;;;;;;;;5033476;28;20048;-61
2024/01/29 12:20:22;;;;;;;1.80;1.13;;;;;;;;;;5033671;28;20049;-61
2024/01/29 12:22:49;;;;;;;3.30;0.85;;;;;;;;;;5032767;28;20141;-61
2024/01/29 12:25:17;;;;;;;2.13;2.03;;;;;;;;;;5033312;28;20049;-61
2024/01/29 12:27:45;;;;;;;0.20;0.20;;;;;;;;;;5033285;28;20033;-61
2024/01/29 12:30:14;;;;;;;0.88;0.65;;;;;;;;;;5033146;28;20038;-61
2024/01/29 12:32:45;;;;;;;0.00;0.00;;;;;;;;;;5033490;28;20037;-61
2024/01/29 12:35:26;;;;;;;3.50;2.58;;;;;;;;;;5033244;28;20045;-61
2024/01/29 12:38:05;;;;;;;6.45;0.57;;;;;;;;;;5033432;28;20061;-61
2024/01/29 12:40:33;;;;;;;0.40;0.40;;;;;;;;;;5033511;28;20046;-61
2024/01/29 12:43:01;;;;;;;1.20;1.10;;;;;;;;;;5033391;28;20443;-61
2024/01/29 12:45:29;;;;;;;2.15;1.95;;;;;;;;;;5033267;28;20053;-61
2024/01/29 12:48:15;;;;;;;1.17;1.08;;;;;;;;;;5033091;28;20116;-61
2024/01/29 12:50:43;;;;;;;0.32;0.32;;;;;;;;;;5033006;28;20049;-61
2024/01/29 12:53:11;;;;;;;0.65;0.32;;;;;;;;;;5032726;28;20117;-61
2024/01/29 12:55:39;;;;;;;0.47;0.47;;;;;;;;;;5032880;28;20037;-61
2024/01/29 12:58:07;;;;;;;0.68;0.47;;;;;;;;;;5032761;28;20041;-61
2024/01/29 13:00:35;;;;;;;0.88;0.88;;;;;;;;;;5032815;28;20038;-61
2024/01/29 13:03:04;;;;;;;0.40;0.40;;;;;;;;;;5033169;28;20041;-61
2024/01/29 13:05:36;;;;;;;0.75;0.65;;;;;;;;;;5032776;28;20037;-61
2024/01/29 13:08:04;;;;;;;4.80;0.52;;;;;;;;;;5032714;28;20045;-61
2024/01/29 13:10:32;;;;;;;1.13;1.13;;;;;;;;;;5032726;28;20084;-61
2024/01/29 13:13:04;;;;;;;3.05;1.42;;;;;;;;;;5032889;28;20053;-61
2024/01/29 13:15:32;;;;;;;0.80;0.80;;;;;;;;;;5032419;28;20041;-61
2024/01/29 13:18:00;;;;;;;1.58;1.42;;;;;;;;;;5032726;28;20060;-61
2024/01/29 13:20:28;;;;;;;1.30;0.80;;;;;;;;;;5032598;28;20132;-60
2024/01/29 13:22:56;;;;;;;0.30;0.30;;;;;;;;;;5032376;28;20112;-61
2024/01/29 13:25:24;;;;;;;0.00;0.00;;;;;;;;;;5032738;28;20041;-62
2024/01/29 13:27:55;;;;;;;0.45;0.45;;;;;;;;;;5032276;28;20047;-60
2024/01/29 13:30:24;;;;;;;0.10;0.10;;;;;;;;;;5032348;28;20510;-60
2024/01/29 13:32:51;;;;;;;0.08;0.08;;;;;;;;;;5032339;28;20107;-61
2024/01/29 13:35:21;;;;;;;0.25;0.20;;;;;;;;;;5034916;28;20049;-61
2024/01/29 13:37:50;;;;;;;0.57;0.57;;;;;;;;;;5036347;28;20044;-60
2024/01/29 13:40:21;;;;;;;0.00;0.00;;;;;;;;;;5036416;28;20117;-60
2024/01/29 13:42:48;;;;;;;0.55;0.55;;;;;;;;;;5036540;28;20056;-60
2024/01/29 13:45:16;;;;;;;1.90;1.80;;;;;;;;;;5035075;28;20107;-60
2024/01/29 13:47:46;;;;;;;0.10;0.10;;;;;;;;;;5036659;28;20225;-60
2024/01/29 13:50:14;;;;;;;2.50;1.20;;;;;;;;;;5034846;28;20479;-60
2024/01/29 13:52:41;;;;;;;0.00;0.00;;;;;;;;;;5036191;28;20049;-60
2024/01/29 13:55:09;;;;;;;0.20;0.20;;;;;;;;;;5036060;28;20057;-61
2024/01/29 13:57:37;;;;;;;0.00;0.00;;;;;;;;;;5035937;28;20399;-61
2024/01/29 14:00:05;;;;;;;0.00;0.00;;;;;;;;;;5036028;28;20483;-60
2024/01/29 14:02:34;;;;;;;0.20;0.20;;;;;;;;;;5036093;28;20060;-60
2024/01/29 14:05:05;;;;;;;0.28;0.28;;;;;;;;;;5035975;28;20390;-60
2024/01/29 14:07:33;;;;;;;2.70;1.75;;;;;;;;;;5035592;28;20088;-60
2024/01/29 14:10:03;;;;;;;1.50;1.40;;;;;;;;;;5035108;28;20128;-60
2024/01/29 14:12:34;;;;;;;0.28;0.28;;;;;;;;;;5035362;28;20570;-60
2024/01/29 14:15:05;;;;;;;1.23;1.17;;;;;;;;;;5034753;28;20656;-62
2024/01/29 14:17:36;;;;;;;2.10;1.58;;;;;;;;;;5034459;28;20053;-60
2024/01/29 14:20:05;;;;;;;0.10;0.10;;;;;;;;;;5035021;28;20045;-60
2024/01/29 14:22:36;;;;;;;0.40;0.40;;;;;;;;;;5035037;28;20103;-61
2024/01/29 14:25:05;;;;;;;0.65;0.52;;;;;;;;;;5035350;28;20479;-61
2024/01/29 14:27:33;;;;;;;0.13;0.13;;;;;;;;;;5034500;28;20115;-62
2024/01/29 14:30:01;;;;;;;0.00;0.00;;;;;;;;;;5035158;28;20034;-61
2024/01/29 14:32:29;;;;;;;0.00;0.00;;;;;;;;;;5034160;28;20519;-62
2024/01/29 14:34:57;;;;;;;0.52;0.52;;;;;;;;;;5034310;28;20112;-62
2024/01/29 14:37:25;;;;;;;0.00;0.00;;;;;;;;;;5035292;28;20052;-61
2024/01/29 14:39:53;;;;;;;0.20;0.10;;;;;;;;;;5035542;28;20048;-61
2024/01/29 14:42:24;;;;;;;0.00;0.00;;;;;;;;;;5034570;28;20045;-61
2024/01/29 14:44:53;;;;;;;2.05;1.02;;;;;;;;;;5033157;28;20045;-61
2024/01/29 14:47:21;;;;;;;0.32;0.32;;;;;;;;;;5034738;28;20484;-62